Time;durP1;ratioP1;P1;durP2;ratioP2;P2;SDS_P1;SDS_P2;PMS_P1;PMS_P2;Temp;Humidity;BMP_temperature;BMP_pressure;BME280_temperature;BME280_humidity;BME280_pressure;Samples;Min_cycle;Max_cycle;Signal;HPM_P1;HPM_P2
2022/09/09 00:02:08;;;;;;;34.10;15.20;;;14.70;99.90;;;;;;4957664;28;20058;-89
2022/09/09 00:04:37;;;;;;;34.33;14.25;;;14.70;99.90;;;;;;4957693;29;20385;-90
2022/09/09 00:07:35;;;;;;;34.35;15.02;;;14.70;99.90;;;;;;4950740;29;20054;-90
2022/09/09 00:10:11;;;;;;;31.58;13.30;;;14.80;99.90;;;;;;4974367;28;20019;-89
2022/09/09 00:13:10;;;;;;;31.85;14.32;;;14.80;99.90;;;;;;4962393;29;20122;-89
2022/09/09 00:15:45;;;;;;;32.38;13.80;;;14.70;99.90;;;;;;4955656;29;20504;-89
2022/09/09 00:18:29;;;;;;;33.85;14.70;;;14.70;99.90;;;;;;4956244;29;20505;-89
2022/09/09 00:20:58;;;;;;;31.67;13.90;;;14.80;99.90;;;;;;4955835;29;20038;-88
2022/09/09 00:23:37;;;;;;;35.85;14.63;;;14.80;99.90;;;;;;4955991;28;20493;-88
2022/09/09 00:26:03;;;;;;;39.03;14.85;;;14.80;99.90;;;;;;4955994;29;20031;-89
2022/09/09 00:28:32;;;;;;;30.92;14.07;;;14.80;99.90;;;;;;4955951;29;20050;-89
2022/09/09 00:31:11;;;;;;;34.35;14.30;;;14.80;99.90;;;;;;4955766;29;20047;-90
2022/09/09 00:33:38;;;;;;;37.95;15.35;;;14.80;99.90;;;;;;4955807;29;20027;-89
2022/09/09 00:36:13;;;;;;;34.83;15.38;;;14.90;99.90;;;;;;4939620;29;20039;-89
2022/09/09 00:38:47;;;;;;;39.47;15.68;;;14.90;99.90;;;;;;4955356;29;20101;-88
2022/09/09 00:41:22;;;;;;;33.22;14.90;;;14.90;99.90;;;;;;4955909;29;20032;-89
2022/09/09 00:44:20;;;;;;;29.65;15.25;;;14.90;99.90;;;;;;4955232;29;20066;-90
2022/09/09 00:46:54;;;;;;;36.58;16.13;;;14.90;99.90;;;;;;4952715;28;20081;-90
2022/09/09 00:50:09;;;;;;;36.10;15.43;;;14.80;99.90;;;;;;4955529;29;20031;-90
2022/09/09 00:53:07;;;;;;;35.63;14.95;;;14.90;99.90;;;;;;4938700;28;20041;-91
2022/09/09 00:56:10;;;;;;;36.00;14.63;;;14.90;99.90;;;;;;4955430;29;20080;-90
2022/09/09 00:58:36;;;;;;;34.85;16.48;;;14.90;99.90;;;;;;4953391;29;20047;-90
2022/09/09 01:01:10;;;;;;;38.65;16.98;;;14.90;99.90;;;;;;4955452;28;20164;-90
2022/09/09 01:03:42;;;;;;;36.13;16.17;;;14.90;99.90;;;;;;4939743;29;20512;-91
2022/09/09 01:06:36;;;;;;;36.05;17.08;;;14.90;99.90;;;;;;4955874;29;20035;-89
2022/09/09 01:09:24;;;;;;;35.80;15.88;;;14.90;99.90;;;;;;4955872;29;20027;-90
2022/09/09 01:12:15;;;;;;;35.63;16.55;;;14.90;99.90;;;;;;4940019;29;20035;-88
2022/09/09 01:15:16;;;;;;;35.20;15.77;;;14.90;99.90;;;;;;4939828;29;20074;-89
2022/09/09 01:17:44;;;;;;;33.42;16.55;;;14.90;99.90;;;;;;4934980;29;20036;-90
2022/09/09 01:20:17;;;;;;;33.28;16.20;;;14.90;99.90;;;;;;4919536;29;20494;-90
2022/09/09 01:23:01;;;;;;;37.42;16.95;;;14.90;99.90;;;;;;4950812;28;20044;-90
2022/09/09 01:25:48;;;;;;;35.63;16.13;;;14.80;99.90;;;;;;4919747;29;20138;-89
2022/09/09 01:28:19;;;;;;;35.03;15.63;;;14.80;99.90;;;;;;4920202;29;20039;-89
2022/09/09 01:30:44;;;;;;;31.15;13.65;;;14.80;99.90;;;;;;4919903;29;20024;-90
2022/09/09 01:33:16;;;;;;;31.67;15.13;;;14.80;99.90;;;;;;4918585;29;20054;-90
2022/09/09 01:36:00;;;;;;;28.45;14.43;;;14.80;99.90;;;;;;4917566;29;20023;-90
2022/09/09 01:38:27;;;;;;;36.50;16.02;;;14.80;99.90;;;;;;4949816;29;20039;-90
2022/09/09 01:40:54;;;;;;;31.92;15.23;;;14.80;99.90;;;;;;4918041;29;20083;-90
2022/09/09 01:43:23;;;;;;;25.23;13.55;;;14.80;99.90;;;;;;4918661;29;20461;-90
2022/09/09 01:45:53;;;;;;;30.58;15.77;;;14.80;99.90;;;;;;4918777;29;20525;-92
2022/09/09 01:48:21;;;;;;;34.42;16.20;;;14.80;99.90;;;;;;4918249;29;20040;-91
2022/09/09 01:50:46;;;;;;;34.38;17.08;;;14.80;99.90;;;;;;4958313;29;20039;-91
2022/09/09 01:53:14;;;;;;;34.92;16.02;;;14.80;99.90;;;;;;4971109;29;20050;-91
2022/09/09 01:55:42;;;;;;;33.22;16.70;;;14.70;99.90;;;;;;4975373;29;20063;-90
2022/09/09 01:58:35;;;;;;;34.28;16.10;;;14.70;99.90;;;;;;4964846;28;20047;-92
2022/09/09 02:01:39;;;;;;;34.72;15.73;;;14.70;99.90;;;;;;4938685;29;20373;-91
2022/09/09 02:04:20;;;;;;;32.78;16.80;;;14.60;99.90;;;;;;4956705;28;20031;-90
2022/09/09 02:06:50;;;;;;;40.10;18.45;;;14.60;99.90;;;;;;4956282;29;20042;-91
2022/09/09 02:09:22;;;;;;;39.60;17.93;;;14.60;99.90;;;;;;4954392;29;20035;-90
2022/09/09 02:11:51;;;;;;;40.63;18.17;;;14.60;99.90;;;;;;4954568;29;20500;-89
2022/09/09 02:14:24;;;;;;;40.92;17.85;;;14.60;99.90;;;;;;4954373;29;20032;-90
2022/09/09 02:17:03;;;;;;;40.65;17.05;;;14.50;99.90;;;;;;4956284;29;20034;-90
2022/09/09 02:19:41;;;;;;;42.40;18.45;;;14.60;99.90;;;;;;4961020;29;20030;-90
2022/09/09 02:22:07;;;;;;;42.75;18.25;;;14.60;99.90;;;;;;4960566;29;20101;-90
2022/09/09 02:24:36;;;;;;;35.72;16.55;;;14.60;99.90;;;;;;4960810;29;20062;-91
2022/09/09 02:27:06;;;;;;;39.90;17.02;;;14.60;99.90;;;;;;4959944;28;20037;-90
2022/09/09 02:29:37;;;;;;;39.83;17.48;;;14.60;99.90;;;;;;4958487;29;20690;-90
2022/09/09 02:32:07;;;;;;;37.08;17.30;;;14.60;99.90;;;;;;4954362;29;20050;-91
2022/09/09 02:34:36;;;;;;;45.50;17.60;;;14.60;99.90;;;;;;4956190;28;20023;-91
2022/09/09 02:37:04;;;;;;;39.20;17.20;;;14.60;99.90;;;;;;4958003;29;20473;-91
2022/09/09 02:39:29;;;;;;;43.50;18.23;;;14.60;99.90;;;;;;4957740;29;20039;-90
2022/09/09 02:41:56;;;;;;;36.97;17.17;;;14.60;99.90;;;;;;4957295;29;20536;-91
2022/09/09 02:44:22;;;;;;;41.58;18.02;;;14.60;99.90;;;;;;4957722;28;20066;-90
2022/09/09 02:47:24;;;;;;;35.60;17.17;;;14.60;99.90;;;;;;4957545;29;20023;-91
2022/09/09 02:50:09;;;;;;;34.78;17.90;;;14.60;99.90;;;;;;4957538;29;20031;-92
2022/09/09 02:53:09;;;;;;;36.15;18.05;;;14.60;99.90;;;;;;4941329;29;20036;-90
2022/09/09 02:55:48;;;;;;;36.97;16.60;;;14.60;99.90;;;;;;4957091;29;20126;-91
2022/09/09 02:58:16;;;;;;;35.63;17.25;;;14.70;99.90;;;;;;4957258;28;20445;-91
2022/09/09 03:00:45;;;;;;;39.22;16.92;;;14.60;99.90;;;;;;4957157;28;20551;-91
2022/09/09 03:03:10;;;;;;;39.45;17.52;;;14.60;99.90;;;;;;4941038;29;20073;-91
2022/09/09 03:05:36;;;;;;;34.40;16.15;;;14.60;99.90;;;;;;4957020;28;20046;-91
2022/09/09 03:08:03;;;;;;;32.92;16.88;;;14.60;99.90;;;;;;4957341;28;20031;-91
2022/09/09 03:10:29;;;;;;;34.10;17.30;;;14.60;99.90;;;;;;4957071;29;20031;-91
2022/09/09 03:12:55;;;;;;;37.40;17.73;;;14.60;99.90;;;;;;4956750;28;20031;-92
2022/09/09 03:15:21;;;;;;;33.58;15.68;;;14.60;99.90;;;;;;4956322;28;20366;-91
2022/09/09 03:17:47;;;;;;;38.72;17.02;;;14.70;99.90;;;;;;4956565;28;20074;-91
2022/09/09 03:20:13;;;;;;;28.70;12.52;;;14.70;99.90;;;;;;4956696;29;20491;-90
2022/09/09 03:22:38;;;;;;;31.10;15.52;;;14.60;99.90;;;;;;4956556;28;20048;-91
2022/09/09 03:25:05;;;;;;;37.97;16.33;;;14.70;99.90;;;;;;4956751;28;20482;-91
2022/09/09 03:27:31;;;;;;;31.30;14.40;;;14.70;99.90;;;;;;4956679;28;20485;-91
2022/09/09 03:29:57;;;;;;;17.98;10.77;;;14.60;99.90;;;;;;4940456;29;20027;-90
2022/09/09 03:32:25;;;;;;;27.63;14.23;;;14.70;99.90;;;;;;4957002;29;20027;-90
2022/09/09 03:34:52;;;;;;;29.40;14.75;;;14.60;99.90;;;;;;4950562;28;20027;-91
2022/09/09 03:37:18;;;;;;;25.70;15.30;;;14.60;99.90;;;;;;4981276;28;20026;-90
2022/09/09 03:39:44;;;;;;;26.90;15.18;;;14.60;99.90;;;;;;4993803;28;20122;-91
2022/09/09 03:42:13;;;;;;;26.02;14.65;;;14.60;99.90;;;;;;4975199;28;20027;-91
2022/09/09 03:44:40;;;;;;;30.25;15.60;;;14.60;99.90;;;;;;4974905;28;20077;-91
2022/09/09 03:47:06;;;;;;;26.40;14.48;;;14.60;99.90;;;;;;4975592;28;20433;-91
2022/09/09 03:49:32;;;;;;;26.15;13.25;;;14.60;99.90;;;;;;4975622;28;20118;-90
2022/09/09 03:51:58;;;;;;;26.05;14.40;;;14.50;99.90;;;;;;4975493;28;20149;-91
2022/09/09 03:54:25;;;;;;;30.83;14.18;;;14.50;99.90;;;;;;4975651;28;20547;-91
2022/09/09 03:56:50;;;;;;;27.73;15.30;;;14.40;99.90;;;;;;4975695;28;20031;-91
2022/09/09 03:59:16;;;;;;;33.90;14.27;;;14.40;99.90;;;;;;4975089;28;20580;-90
2022/09/09 04:01:42;;;;;;;30.02;16.48;;;14.40;99.90;;;;;;4976462;28;20472;-92
2022/09/09 04:04:09;;;;;;;29.98;14.48;;;14.40;99.90;;;;;;4977154;28;20129;-91
2022/09/09 04:06:35;;;;;;;29.85;13.82;;;14.40;99.90;;;;;;4959582;28;20023;-90
2022/09/09 04:09:03;;;;;;;27.02;14.15;;;14.40;99.90;;;;;;4974986;28;20041;-90
2022/09/09 04:11:29;;;;;;;32.33;15.70;;;14.40;99.90;;;;;;4975142;28;20079;-91
2022/09/09 04:13:54;;;;;;;28.63;14.60;;;14.30;99.90;;;;;;4975173;28;20117;-91
2022/09/09 04:16:20;;;;;;;30.27;16.27;;;14.30;99.90;;;;;;4975607;28;20069;-91
2022/09/09 04:18:46;;;;;;;27.00;15.18;;;14.30;99.90;;;;;;4975282;28;20026;-91
2022/09/09 04:21:12;;;;;;;35.30;16.58;;;14.30;99.90;;;;;;4961982;28;20027;-91
2022/09/09 04:23:38;;;;;;;31.23;16.73;;;14.30;99.90;;;;;;4959174;28;20369;-91
2022/09/09 04:26:05;;;;;;;29.15;14.25;;;14.30;99.90;;;;;;4975436;28;20480;-91
2022/09/09 04:28:35;;;;;;;36.38;16.77;;;14.20;99.90;;;;;;4975037;28;20179;-91
2022/09/09 04:31:11;;;;;;;32.47;16.27;;;14.20;99.90;;;;;;4975492;28;20042;-91
2022/09/09 04:33:38;;;;;;;27.50;14.50;;;14.20;99.90;;;;;;4975159;28;20030;-91
2022/09/09 04:36:04;;;;;;;31.02;14.63;;;14.20;99.90;;;;;;4974494;28;20018;-91
2022/09/09 04:38:30;;;;;;;30.27;14.80;;;14.20;99.90;;;;;;4974446;28;20114;-91
2022/09/09 04:40:55;;;;;;;27.85;14.77;;;14.20;99.90;;;;;;4974696;28;20026;-91
2022/09/09 04:43:22;;;;;;;25.45;13.77;;;14.10;99.90;;;;;;4974473;28;20042;-91
2022/09/09 04:45:51;;;;;;;22.58;12.35;;;14.20;99.90;;;;;;4974403;28;20049;-91
2022/09/09 04:48:17;;;;;;;29.60;13.65;;;14.10;99.90;;;;;;4974356;28;20030;-91
2022/09/09 04:50:43;;;;;;;31.30;14.38;;;14.10;99.90;;;;;;4958483;28;20023;-91
2022/09/09 04:53:08;;;;;;;27.20;13.40;;;14.10;99.90;;;;;;4958950;28;20023;-93
2022/09/09 04:55:35;;;;;;;31.65;14.82;;;14.10;99.90;;;;;;4955245;29;20035;-91
2022/09/09 04:58:08;;;;;;;27.85;14.27;;;14.10;99.90;;;;;;4954385;28;20020;-91
2022/09/09 05:00:37;;;;;;;29.25;12.95;;;14.10;99.90;;;;;;4955037;29;20039;-92
2022/09/09 05:03:04;;;;;;;25.27;12.48;;;14.10;99.90;;;;;;4955263;28;20035;-92
2022/09/09 05:05:31;;;;;;;26.13;12.80;;;14.10;99.90;;;;;;4955505;29;20393;-92
2022/09/09 05:08:05;;;;;;;25.38;13.65;;;14.10;99.90;;;;;;4955366;28;20032;-91
2022/09/09 05:10:31;;;;;;;29.60;13.43;;;14.10;99.90;;;;;;4955115;29;20051;-91
2022/09/09 05:12:57;;;;;;;24.52;12.10;;;14.10;99.90;;;;;;4957403;28;20400;-90
2022/09/09 05:15:23;;;;;;;24.77;12.98;;;14.10;99.90;;;;;;4976602;28;20027;-91
2022/09/09 05:17:48;;;;;;;32.45;12.02;;;14.20;99.90;;;;;;4980707;28;20038;-91
2022/09/09 05:20:14;;;;;;;22.17;10.85;;;14.20;99.90;;;;;;4981918;28;20027;-92
2022/09/09 05:22:40;;;;;;;22.45;11.20;;;14.20;99.90;;;;;;4982869;28;20015;-91
2022/09/09 05:25:06;;;;;;;19.27;9.73;;;14.20;99.90;;;;;;4982225;28;20048;-91
2022/09/09 05:27:34;;;;;;;27.48;11.90;;;14.20;99.90;;;;;;4951731;29;20105;-91
2022/09/09 05:30:00;;;;;;;28.05;12.20;;;14.20;99.90;;;;;;4959234;28;20023;-91
2022/09/09 05:32:25;;;;;;;21.85;11.50;;;14.20;99.90;;;;;;4967023;28;20497;-91
2022/09/09 05:34:52;;;;;;;28.77;13.48;;;14.20;99.90;;;;;;4965169;28;20066;-91
2022/09/09 05:37:18;;;;;;;16.02;9.27;;;14.20;99.90;;;;;;4962427;28;20027;-92
2022/09/09 05:39:43;;;;;;;30.10;12.48;;;14.20;99.90;;;;;;4963389;28;20470;-91
2022/09/09 05:42:09;;;;;;;24.95;13.20;;;14.30;99.90;;;;;;4962170;28;20030;-89
2022/09/09 05:44:35;;;;;;;30.73;15.70;;;14.30;99.90;;;;;;4963876;28;20035;-91
2022/09/09 05:47:00;;;;;;;25.63;12.73;;;14.30;99.90;;;;;;4964066;28;20019;-89
2022/09/09 05:49:27;;;;;;;26.80;12.65;;;14.30;99.90;;;;;;4962746;28;20030;-92
2022/09/09 05:51:53;;;;;;;34.45;14.57;;;14.30;99.90;;;;;;4961385;28;20028;-92
2022/09/09 05:54:19;;;;;;;25.90;11.82;;;14.30;99.90;;;;;;4956276;28;20027;-91
2022/09/09 05:56:45;;;;;;;25.25;11.80;;;14.30;99.90;;;;;;4954443;28;20433;-91
2022/09/09 05:59:12;;;;;;;22.15;11.95;;;14.30;99.90;;;;;;4955374;28;20055;-90
2022/09/09 06:01:42;;;;;;;24.15;12.85;;;14.30;99.90;;;;;;4953753;28;20043;-91
2022/09/09 06:04:08;;;;;;;21.13;12.18;;;14.40;99.90;;;;;;4963982;28;20039;-91
2022/09/09 06:06:36;;;;;;;25.15;12.18;;;14.40;99.90;;;;;;4947528;28;20069;-91
2022/09/09 06:09:06;;;;;;;25.75;11.98;;;14.40;99.90;;;;;;4963311;28;20514;-92
2022/09/09 06:11:33;;;;;;;29.73;13.10;;;14.40;99.90;;;;;;4964100;28;20031;-91
2022/09/09 06:14:00;;;;;;;24.45;13.15;;;14.40;99.90;;;;;;4966016;28;20114;-90
2022/09/09 06:16:28;;;;;;;26.50;13.27;;;14.40;99.90;;;;;;4967389;28;20035;-91
2022/09/09 06:18:56;;;;;;;24.55;12.85;;;14.40;99.90;;;;;;4965438;28;20023;-90
2022/09/09 06:21:27;;;;;;;21.17;12.27;;;14.40;99.90;;;;;;4950387;28;20031;-91
2022/09/09 06:23:55;;;;;;;24.67;11.90;;;14.40;99.90;;;;;;4968471;28;20035;-91
2022/09/09 06:26:30;;;;;;;22.25;12.07;;;14.40;99.90;;;;;;4965570;28;20079;-90
2022/09/09 06:28:57;;;;;;;30.40;13.02;;;14.40;99.90;;;;;;4965580;28;20046;-91
2022/09/09 06:31:26;;;;;;;31.27;14.00;;;14.40;99.90;;;;;;4951901;28;20033;-91
2022/09/09 06:33:54;;;;;;;22.20;11.32;;;14.40;99.90;;;;;;4951308;28;20027;-91
2022/09/09 06:36:29;;;;;;;27.67;12.43;;;14.40;99.90;;;;;;4964808;28;20034;-88
2022/09/09 06:38:55;;;;;;;27.05;9.85;;;14.40;99.90;;;;;;4964587;28;20042;-89
2022/09/09 06:41:23;;;;;;;20.73;11.90;;;14.40;99.90;;;;;;4967839;28;20102;-91
2022/09/09 06:43:49;;;;;;;21.80;12.05;;;14.40;99.90;;;;;;4967047;28;20070;-89
2022/09/09 06:46:21;;;;;;;22.20;12.38;;;14.40;99.90;;;;;;4963640;28;20028;-89
2022/09/09 06:48:47;;;;;;;21.88;10.85;;;14.50;99.90;;;;;;4968377;28;20024;-89
2022/09/09 06:51:18;;;;;;;25.75;11.95;;;14.40;99.90;;;;;;4963461;28;20026;-89
2022/09/09 06:53:46;;;;;;;20.60;11.10;;;14.50;99.90;;;;;;4975097;28;20027;-88
2022/09/09 06:56:14;;;;;;;21.25;11.18;;;14.40;99.90;;;;;;4966609;28;20110;-89
2022/09/09 06:58:42;;;;;;;20.48;11.10;;;14.40;99.90;;;;;;4963503;28;20055;-90
2022/09/09 07:01:09;;;;;;;27.27;11.93;;;14.50;99.90;;;;;;4961248;28;20038;-89
2022/09/09 07:03:35;;;;;;;17.15;9.52;;;14.50;99.90;;;;;;4963721;28;20031;-90
2022/09/09 07:06:01;;;;;;;19.90;11.05;;;14.50;99.90;;;;;;4969372;28;20025;-89
2022/09/09 07:08:28;;;;;;;18.65;11.50;;;14.50;99.90;;;;;;4983128;28;20257;-89
2022/09/09 07:10:54;;;;;;;24.48;11.73;;;14.60;99.90;;;;;;4980777;28;20062;-89
2022/09/09 07:13:28;;;;;;;25.02;12.45;;;14.70;99.90;;;;;;4971816;28;20120;-90
2022/09/09 07:15:54;;;;;;;20.15;11.23;;;14.70;99.90;;;;;;4965837;28;20023;-89
2022/09/09 07:18:20;;;;;;;21.73;12.07;;;14.80;99.90;;;;;;4965649;28;20147;-90
2022/09/09 07:20:56;;;;;;;23.30;12.43;;;14.80;99.90;;;;;;4962542;28;20030;-89
2022/09/09 07:23:23;;;;;;;23.45;12.60;;;14.90;99.90;;;;;;4966766;28;20043;-90
2022/09/09 07:25:50;;;;;;;21.30;11.43;;;15.00;99.90;;;;;;4970203;28;20500;-91
2022/09/09 07:28:15;;;;;;;22.83;12.00;;;15.00;99.90;;;;;;4970470;28;20027;-91
2022/09/09 07:30:42;;;;;;;26.67;13.55;;;15.10;99.90;;;;;;4965142;28;20042;-91
2022/09/09 07:33:09;;;;;;;26.73;13.98;;;15.10;99.90;;;;;;4964305;28;20110;-91
2022/09/09 07:35:36;;;;;;;29.52;13.68;;;15.20;99.90;;;;;;4951917;28;20019;-91
2022/09/09 07:38:06;;;;;;;28.40;11.98;;;15.30;99.90;;;;;;4978004;28;20031;-90
2022/09/09 07:40:33;;;;;;;31.85;13.45;;;15.40;99.90;;;;;;4987069;28;20061;-90
2022/09/09 07:42:59;;;;;;;27.30;12.65;;;15.40;99.90;;;;;;4984405;28;20041;-91
2022/09/09 07:45:27;;;;;;;31.92;14.48;;;15.50;99.90;;;;;;4969002;28;20038;-90
2022/09/09 07:47:56;;;;;;;27.83;12.65;;;15.50;99.90;;;;;;4954082;29;20054;-91
2022/09/09 07:50:23;;;;;;;24.80;11.85;;;15.60;99.90;;;;;;4962959;28;20330;-90
2022/09/09 07:52:50;;;;;;;25.27;12.35;;;15.70;99.90;;;;;;4949834;28;20085;-91
2022/09/09 07:55:16;;;;;;;22.58;11.70;;;15.70;99.90;;;;;;4958197;28;20031;-92
2022/09/09 07:57:43;;;;;;;24.67;11.38;;;15.70;99.90;;;;;;4964778;28;20038;-89
2022/09/09 08:00:10;;;;;;;21.83;11.52;;;15.80;99.90;;;;;;4963610;28;20054;-92
2022/09/09 08:02:36;;;;;;;22.33;10.23;;;15.80;99.90;;;;;;4975876;28;20042;-94
2022/09/09 08:05:02;;;;;;;21.55;10.43;;;15.80;99.90;;;;;;4945169;28;20690;-93
2022/09/09 08:07:28;;;;;;;23.17;11.35;;;15.90;99.90;;;;;;4963412;28;20181;-91
2022/09/09 08:09:55;;;;;;;24.33;10.25;;;15.90;99.90;;;;;;4968334;29;20023;-90
2022/09/09 08:12:21;;;;;;;15.98;9.88;;;15.90;99.90;;;;;;4972472;28;20020;-92
2022/09/09 08:14:48;;;;;;;19.67;10.77;;;16.00;99.90;;;;;;4957398;29;20031;-93
2022/09/09 08:17:14;;;;;;;17.75;8.95;;;16.00;99.90;;;;;;4957263;29;20023;-91
2022/09/09 08:19:40;;;;;;;16.30;9.38;;;16.10;99.90;;;;;;4968212;28;20061;-90
2022/09/09 08:22:05;;;;;;;20.17;9.68;;;16.20;99.90;;;;;;4964855;28;20034;-92
2022/09/09 08:24:31;;;;;;;18.83;8.45;;;16.30;99.90;;;;;;4959816;28;20031;-91
2022/09/09 08:26:57;;;;;;;14.30;7.82;;;16.40;99.90;;;;;;4972802;28;20027;-90
2022/09/09 08:29:23;;;;;;;16.35;7.95;;;16.40;99.90;;;;;;4963398;28;20101;-90
2022/09/09 08:31:54;;;;;;;18.65;9.00;;;16.50;99.90;;;;;;4970852;28;20039;-91
2022/09/09 08:34:20;;;;;;;18.13;8.70;;;16.40;99.90;;;;;;4977590;28;20052;-92
2022/09/09 08:36:48;;;;;;;21.45;9.48;;;16.50;99.90;;;;;;4975343;28;20309;-90
2022/09/09 08:39:16;;;;;;;20.65;9.40;;;16.40;99.90;;;;;;4975565;28;20030;-91
2022/09/09 08:42:12;;;;;;;18.15;9.13;;;16.50;99.90;;;;;;4975044;28;20085;-91
2022/09/09 08:45:17;;;;;;;14.27;8.10;;;16.60;99.90;;;;;;4975247;28;20106;-93
2022/09/09 08:48:20;;;;;;;19.00;7.95;;;16.70;99.90;;;;;;4976205;28;20416;-94
2022/09/09 08:50:52;;;;;;;22.88;8.82;;;16.80;99.90;;;;;;4955436;28;20042;-92
2022/09/09 08:53:32;;;;;;;18.50;7.32;;;16.90;99.90;;;;;;4989668;28;20037;-92
2022/09/09 08:56:01;;;;;;;21.30;8.05;;;17.00;99.90;;;;;;5011940;28;20022;-91
2022/09/09 08:58:35;;;;;;;16.90;6.00;;;17.00;99.90;;;;;;5009817;28;20062;-91
2022/09/09 09:01:10;;;;;;;9.50;5.70;;;17.20;99.90;;;;;;4968828;28;20105;-92
2022/09/09 09:03:55;;;;;;;13.05;5.18;;;17.30;99.90;;;;;;4965090;28;20030;-91
2022/09/09 09:06:30;;;;;;;11.43;5.32;;;17.40;99.90;;;;;;4976817;28;20023;-93
2022/09/09 09:09:14;;;;;;;9.45;5.43;;;17.50;99.90;;;;;;4963173;28;20249;-93
2022/09/09 09:12:01;;;;;;;8.65;5.38;;;17.50;99.90;;;;;;4964488;28;20187;-92
2022/09/09 09:14:34;;;;;;;10.98;5.97;;;17.50;99.90;;;;;;4979284;28;20042;-91
2022/09/09 09:17:25;;;;;;;9.77;5.30;;;17.50;99.90;;;;;;4964405;28;20147;-92
2022/09/09 09:19:50;;;;;;;14.23;5.43;;;17.60;99.90;;;;;;4966295;28;20034;-91
2022/09/09 09:22:25;;;;;;;10.93;3.92;;;17.60;99.90;;;;;;4962257;28;20496;-91
2022/09/09 09:24:55;;;;;;;7.57;4.05;;;17.70;99.90;;;;;;4951188;28;20031;-91
2022/09/09 09:27:39;;;;;;;9.32;3.80;;;17.80;99.90;;;;;;4964052;28;20019;-90
2022/09/09 09:30:16;;;;;;;9.15;3.17;;;17.90;99.90;;;;;;4955639;28;20035;-90
2022/09/09 09:32:58;;;;;;;8.05;3.22;;;18.10;99.90;;;;;;4955104;29;20030;-91
2022/09/09 09:35:24;;;;;;;13.63;3.00;;;18.20;99.90;;;;;;4939079;29;20054;-91
2022/09/09 09:37:50;;;;;;;7.60;2.88;;;18.30;99.90;;;;;;4953533;29;20031;-91
2022/09/09 09:40:23;;;;;;;6.53;2.30;;;18.50;99.90;;;;;;4955049;28;20078;-91
2022/09/09 09:43:08;;;;;;;4.22;1.80;;;18.70;99.90;;;;;;4957951;28;20039;-92
2022/09/09 09:45:41;;;;;;;5.22;2.05;;;18.80;99.90;;;;;;4951437;28;20019;-92
2022/09/09 09:48:10;;;;;;;8.88;2.67;;;18.80;99.90;;;;;;4964346;28;20026;-92
2022/09/09 09:50:51;;;;;;;6.68;2.05;;;18.70;99.90;;;;;;4965606;28;20059;-93
2022/09/09 09:53:38;;;;;;;8.20;2.30;;;18.70;99.90;;;;;;4966380;28;20038;-92
2022/09/09 09:56:10;;;;;;;5.22;1.52;;;18.80;99.90;;;;;;4968683;28;20106;-93
2022/09/09 09:58:50;;;;;;;7.03;1.58;;;19.00;99.90;;;;;;4958519;28;20106;-92
2022/09/09 10:01:35;;;;;;;6.82;1.80;;;19.20;99.90;;;;;;4971569;28;20057;-92
2022/09/09 10:04:17;;;;;;;7.25;1.23;;;19.40;99.90;;;;;;4970119;28;20555;-91
2022/09/09 10:06:43;;;;;;;6.78;1.40;;;19.50;99.90;;;;;;4969821;28;20025;-91
2022/09/09 10:09:35;;;;;;;6.80;1.50;;;19.70;99.90;;;;;;4966661;28;20106;-91
2022/09/09 10:12:22;;;;;;;5.80;1.70;;;19.80;99.90;;;;;;4968654;28;20034;-92
2022/09/09 10:15:13;;;;;;;6.00;1.50;;;19.70;99.90;;;;;;4970433;28;20038;-93
2022/09/09 10:18:03;;;;;;;5.28;1.50;;;19.70;99.90;;;;;;4970582;28;20034;-91
2022/09/09 10:20:39;;;;;;;4.28;1.63;;;19.60;99.90;;;;;;4967475;28;20343;-91
2022/09/09 10:23:26;;;;;;;5.35;1.50;;;19.60;99.90;;;;;;4961884;28;20102;-91
2022/09/09 10:26:14;;;;;;;5.45;1.60;;;19.70;99.90;;;;;;4964314;28;20030;-90
2022/09/09 10:29:05;;;;;;;6.65;1.42;;;19.90;99.90;;;;;;4970917;28;20030;-90
2022/09/09 10:31:51;;;;;;;3.53;1.40;;;20.20;99.90;;;;;;4967029;28;20033;-91
2022/09/09 10:34:55;;;;;;;7.93;1.95;;;20.50;99.90;;;;;;4959919;28;20019;-91
2022/09/09 10:37:23;;;;;;;7.93;1.48;;;20.80;99.90;;;;;;4967729;28;20029;-92
2022/09/09 10:39:58;;;;;;;7.80;1.90;;;21.10;99.90;;;;;;4958844;28;20488;-92
2022/09/09 10:42:30;;;;;;;7.00;1.27;;;21.40;99.90;;;;;;4988920;28;20118;-90
2022/09/09 10:45:19;;;;;;;5.38;1.10;;;21.50;99.90;;;;;;4983465;28;20054;-91
2022/09/09 10:48:13;;;;;;;4.68;1.23;;;21.50;99.10;;;;;;4974163;28;20035;-92
2022/09/09 10:50:51;;;;;;;8.00;1.90;;;21.60;98.80;;;;;;4970206;28;20026;-92
2022/09/09 10:53:28;;;;;;;5.30;1.20;;;21.70;97.30;;;;;;4972326;28;20090;-91
2022/09/09 10:56:11;;;;;;;3.47;0.93;;;21.80;96.30;;;;;;4969711;28;20026;-92
2022/09/09 10:59:12;;;;;;;8.25;1.27;;;22.10;95.40;;;;;;4970600;28;20173;-90
2022/09/09 11:01:44;;;;;;;1.95;1.10;;;22.30;93.90;;;;;;4969846;28;20085;-92
2022/09/09 11:04:26;;;;;;;3.80;1.20;;;22.70;92.80;;;;;;4977857;28;20039;-90
2022/09/09 11:06:54;;;;;;;6.43;1.75;;;22.90;91.70;;;;;;4982265;28;20082;-90
2022/09/09 11:09:30;;;;;;;2.85;0.95;;;22.90;90.70;;;;;;4983144;28;20014;-91
2022/09/09 11:11:59;;;;;;;7.90;1.10;;;22.90;90.30;;;;;;4980266;28;20086;-91
2022/09/09 11:21:51;;;;;;;6.00;1.08;;;22.80;89.30;;;;;;4990545;23;20105;-72
2022/09/09 11:24:41;;;;;;;3.63;1.15;;;22.90;89.40;;;;;;4975188;28;20117;-75
2022/09/09 11:27:31;;;;;;;3.55;1.20;;;23.00;88.10;;;;;;4972249;28;20019;-72
2022/09/09 11:30:03;;;;;;;4.78;1.10;;;23.30;87.10;;;;;;4973675;28;20027;-74
2022/09/09 11:33:00;;;;;;;6.40;1.23;;;23.50;86.40;;;;;;4972378;28;20149;-72
2022/09/09 11:35:46;;;;;;;4.45;1.30;;;23.50;87.10;;;;;;4971176;28;20023;-71
2022/09/09 11:38:28;;;;;;;4.40;1.17;;;23.30;88.10;;;;;;4972787;28;20062;-74
2022/09/09 11:41:00;;;;;;;5.47;1.10;;;22.90;89.20;;;;;;4972856;28;20030;-72
2022/09/09 11:43:38;;;;;;;6.82;1.10;;;22.60;90.40;;;;;;4970197;28;20474;-70
2022/09/09 11:46:04;;;;;;;3.25;0.93;;;22.30;91.20;;;;;;4977681;28;20025;-70
2022/09/09 11:48:58;;;;;;;7.28;1.52;;;22.10;92.00;;;;;;4975755;28;20081;-70
2022/09/09 11:51:23;;;;;;;3.67;1.13;;;21.90;92.70;;;;;;4974995;28;20030;-70
2022/09/09 11:53:52;;;;;;;5.45;1.52;;;21.80;93.30;;;;;;4959094;28;20533;-71
2022/09/09 11:56:44;;;;;;;5.78;1.20;;;21.80;93.90;;;;;;4957443;28;20059;-72
2022/09/09 11:59:25;;;;;;;2.63;0.80;;;22.20;94.10;;;;;;4971424;28;20042;-70
2022/09/09 12:02:12;;;;;;;4.82;1.38;;;22.70;93.20;;;;;;4976662;28;20462;-70
2022/09/09 12:04:48;;;;;;;5.85;1.23;;;23.10;91.80;;;;;;4971244;28;20379;-71
2022/09/09 12:07:26;;;;;;;5.53;1.10;;;23.30;90.60;;;;;;4974189;28;20234;-72
2022/09/09 12:09:57;;;;;;;4.25;1.55;;;23.40;89.10;;;;;;4974711;28;20045;-70
2022/09/09 12:12:33;;;;;;;4.63;1.05;;;23.40;88.20;;;;;;4974565;28;20354;-70
2022/09/09 12:15:07;;;;;;;4.22;1.05;;;23.10;87.60;;;;;;4956737;28;20093;-75
2022/09/09 12:17:44;;;;;;;5.75;1.17;;;23.00;87.80;;;;;;4974350;28;20022;-72
2022/09/09 12:20:15;;;;;;;4.90;1.20;;;23.10;87.30;;;;;;4974087;28;20027;-71
2022/09/09 12:23:01;;;;;;;2.58;0.93;;;23.30;85.80;;;;;;4974360;28;20114;-70
2022/09/09 12:25:36;;;;;;;4.85;0.85;;;23.70;85.50;;;;;;4973695;28;20033;-72
2022/09/09 12:28:15;;;;;;;3.42;1.00;;;24.30;83.50;;;;;;4974072;28;20116;-74
2022/09/09 12:31:23;;;;;;;1.83;0.70;;;24.70;80.00;;;;;;4956716;28;20023;-72
2022/09/09 12:33:49;;;;;;;5.65;1.20;;;25.20;77.50;;;;;;4954149;28;20049;-71
2022/09/09 12:36:19;;;;;;;8.95;1.10;;;25.20;77.70;;;;;;4955823;28;20022;-71
2022/09/09 12:38:45;;;;;;;;;;;24.80;79.50;;;;;;4972090;28;20023;-71
2022/09/09 12:41:26;;;;;;;3.70;0.77;;;24.50;81.20;;;;;;4973269;28;19989;-69
2022/09/09 12:44:10;;;;;;;4.47;1.40;;;24.00;82.80;;;;;;4972873;28;20075;-71
2022/09/09 12:46:41;;;;;;;3.85;0.88;;;23.60;84.70;;;;;;4973617;28;20030;-71
2022/09/09 12:49:26;;;;;;;2.53;0.75;;;23.20;86.10;;;;;;4956510;28;20122;-71
2022/09/09 12:51:57;;;;;;;3.10;1.33;;;23.00;87.90;;;;;;4973511;28;20030;-71
2022/09/09 12:54:23;;;;;;;6.53;1.10;;;22.80;89.10;;;;;;4986680;28;20045;-70
2022/09/09 12:56:50;;;;;;;2.63;0.50;;;22.50;90.10;;;;;;4975615;28;20550;-70
2022/09/09 12:59:34;;;;;;;1.08;0.43;;;22.30;90.60;;;;;;4973371;28;20027;-71
2022/09/09 13:02:00;;;;;;;1.10;0.50;;;21.90;90.40;;;;;;4973657;28;20471;-73
2022/09/09 13:04:26;;;;;;;2.08;0.90;;;21.70;90.70;;;;;;4972723;28;20043;-71
2022/09/09 13:06:52;;;;;;;1.95;0.60;;;21.50;90.80;;;;;;4972774;28;20105;-70
2022/09/09 13:09:19;;;;;;;2.97;0.60;;;21.40;91.10;;;;;;4973178;28;20423;-72
2022/09/09 13:11:55;;;;;;;2.88;0.50;;;21.30;91.50;;;;;;4973103;28;20030;-73